Flight Track Log - Related Links

Times and Time Zones

All times are in EDT time to prevent confusion due to time zone crossing. See the SWA3303 flight status page for this flight to view local times or setup timezone preferences in your user account.


Time Position Orientation Groundspeed Altitude Reporting Facility
EDT Latitude Longitude Course Direction KTS MPH feet Rate Location/Type
Sun 05:12:55 PM 33.9500 -118.4500 287° West 152 175 1,800  Level Southern California TRACON
Sun 05:13:34 PM 33.9444 -118.4939 261° West 183 211 3,500 3,313 Climbing Los Angeles Center
Sun 05:15:38 PM 33.9156 -118.6750 299° West 271 312 10,800 3,065 Climbing Los Angeles Center
Sun 05:16:40 PM 33.8964 -118.7847 258° West 343 395 13,000 2,516 Climbing Los Angeles Center
Sun 05:17:42 PM 33.8883 -118.9017 265° West 358 412 16,000 2,784 Climbing Los Angeles Center
Sun 05:18:00 PM 34.0835 -118.9340 287° West  Level FlightAware Approximate
Sun 05:18:45 PM 33.9533 -118.9911 311° West 356 410 18,800  Level Los Angeles Center
Sun 05:19:47 PM 34.0208 -119.0864 311° West 369 425 21,400 2,516 Climbing Los Angeles Center
Sun 05:20:49 PM 34.1061 -119.2053 311° West 390 449 24,000 2,226 Climbing Los Angeles Center
Sun 05:21:51 PM 34.1778 -119.3094 310° West 398 458 26,000 1,935 Climbing Los Angeles Center
Sun 05:22:53 PM 34.2542 -119.4142 311° West 410 472 28,000 1,984 Climbing Los Angeles Center
Sun 05:23:55 PM 34.3289 -119.5206 310° West 415 478 30,100 2,032 Climbing Los Angeles Center
Sun 05:24:57 PM 34.4033 -119.6267 310° West 415 478 32,200 1,984 Climbing Los Angeles Center
Sun 05:25:59 PM 34.4769 -119.7283 311° West 409 471 34,200 1,968 Climbing Los Angeles Center
Sun 05:27:02 PM 34.5772 -119.8306 320° Northwest 403 464 36,300 1,776 Climbing Los Angeles Center
Sun 05:28:04 PM 34.6711 -119.9044 327° Northwest 398 458 37,900 823 Climbing Los Angeles Center
Sun 05:29:06 PM 34.7603 -119.9781 326° Northwest 396 456 38,000 48 Climbing Los Angeles Center
Sun 05:30:08 PM 34.8494 -120.0522 326° Northwest 392 451 38,000  Level Los Angeles Center
Sun 05:31:10 PM 34.9369 -120.1253 326° Northwest 392 451 38,000  Level Los Angeles Center
Sun 05:32:12 PM 35.0436 -120.2139 326° Northwest 391 450 38,000  Level Los Angeles Center
Sun 05:33:14 PM 35.1317 -120.2881 325° Northwest 390 449 38,000  Level Los Angeles Center
Sun 05:34:16 PM 35.2194 -120.3603 326° Northwest 386 444 38,000  Level Los Angeles Center
Sun 05:35:18 PM 35.3075 -120.4331 326° Northwest 386 444 38,000  Level Los Angeles Center
Sun 05:36:21 PM 35.3936 -120.5103 324° Northwest 391 450 38,000  Level Los Angeles Center
Sun 05:37:23 PM 35.4994 -120.5989 326° Northwest 387 445 38,000  Level Los Angeles Center
Sun 05:38:25 PM 35.5867 -120.6717 326° Northwest 384 442 38,000  Level Los Angeles Center
Sun 05:39:05 PM 35.6503 -120.7275 325° Northwest 379 436 38,000  Level Oakland Center
Sun 05:40:06 PM 35.7375 -120.7997 326° Northwest 379 436 38,000  Level Oakland Center
Sun 05:41:08 PM 35.8236 -120.8739 325° Northwest 376 433 38,000  Level Oakland Center
Sun 05:42:10 PM 35.9092 -120.9461 326° Northwest 374 430 38,000 -1,073 Level Oakland Center
Sun 05:43:11 PM 35.9933 -121.0181 325° Northwest 369 425 35,800 -2,732 Descending Oakland Center
Sun 05:44:13 PM 36.0800 -121.0936 325° Northwest 378 435 32,400 -2,878 Descending Oakland Center
Sun 05:45:14 PM 36.1694 -121.1719 325° Northwest 390 449 29,900 -2,732 Descending Oakland Center
Sun 05:46:16 PM 36.2639 -121.2519 326° Northwest 406 467 26,800 -3,122 Descending Oakland Center
Sun 05:47:17 PM 36.3686 -121.3433 325° Northwest 380 437 23,500 -2,829 Descending Oakland Center
Sun 05:48:19 PM 36.4519 -121.4169 325° Northwest 365 420 21,000 -2,419 Descending Oakland Center
Sun 05:49:21 PM 36.5319 -121.4814 327° Northwest 345 397 18,500 -2,537 Descending Oakland Center
Sun 05:50:22 PM 36.6331 -121.4978 353° North 358 412 15,800 -2,537 Descending Oakland Center
Sun 05:51:24 PM 36.7303 -121.5139 352° North 353 406 13,300 -2,341 Descending Oakland Center
Sun 05:52:25 PM 36.8219 -121.5322 351° North 329 379 11,000 -1,707 Descending Oakland Center
Sun 05:53:27 PM 36.9061 -121.5469 352° North 308 354 9,800 -1,171 Descending Oakland Center
Sun 05:54:28 PM 36.9811 -121.5678 347° North 285 328 8,600 -1,366 Descending Oakland Center
Sun 05:55:30 PM 37.0417 -121.6197 326° Northwest 267 307 7,000 -1,317 Descending Oakland Center
Sun 05:56:31 PM 37.1136 -121.6775 327° Northwest 259 298 5,900 -1,659 Descending Oakland Center
Sun 05:57:33 PM 37.1731 -121.7247 328° Northwest 255 293 3,600 -1,403 Descending Oakland Center
Sun 05:58:35 PM 37.2281 -121.7844 319° Northwest 263 303 3,000 -634 Descending Oakland Center
Sun 05:59:36 PM 37.2739 -121.8378 317° Northwest 244 281 2,300 -829 Descending Oakland Center
Sun 06:00:38 PM 37.3164 -121.8822 320° Northwest 218 251 1,300 -927 Descending Oakland Center
Sun 06:01:39 PM 37.3444 -121.9139 318° Northwest 164 189 400 -885 Descending Oakland Center
Sun 06:03:00 PM 37.3500 -121.9167 North  Level FlightAware Approximate

Login

Don't have an account? Register now (free) for customized features, flight alerts, and more!